createdAt,value
2019-03-22T00:01:19.304Z,67.54
2019-03-22T00:03:50.042Z,67.93
2019-03-22T00:06:17.669Z,67.57
2019-03-22T00:08:45.337Z,66.84
2019-03-22T00:11:12.983Z,66.33
2019-03-22T00:13:43.226Z,66.42
2019-03-22T00:16:12.905Z,65.71
2019-03-22T00:18:40.540Z,63.92
2019-03-22T00:21:09.696Z,63.97
2019-03-22T00:23:37.320Z,63.92
2019-03-22T00:26:04.946Z,64.18
2019-03-22T00:28:32.575Z,63.37
2019-03-22T00:31:00.180Z,63.39
2019-03-22T00:33:27.803Z,62.58
2019-03-22T00:35:59.559Z,62.96
2019-03-22T00:38:27.169Z,62.94
2019-03-22T00:40:54.778Z,62.36
2019-03-22T00:43:24.726Z,62.44
2019-03-22T00:45:52.402Z,61.98
2019-03-22T00:48:20.135Z,62.14
2019-03-22T00:50:47.791Z,60.96
2019-03-22T00:53:15.455Z,60.24
2019-03-22T00:55:43.061Z,61.34
2019-03-22T00:58:10.678Z,61.46
2019-03-22T01:00:38.324Z,61.32
2019-03-22T01:03:05.953Z,61.46
2019-03-22T01:05:38.893Z,61.13
2019-03-22T01:08:06.544Z,61.77
2019-03-22T01:10:34.275Z,61.67
2019-03-22T01:13:02.981Z,61.85
2019-03-22T01:15:30.613Z,62.06
2019-03-22T01:17:58.290Z,62.26
2019-03-22T01:20:25.886Z,61.54
2019-03-22T01:22:53.748Z,60.69
2019-03-22T01:25:23.949Z,61.21
2019-03-22T01:27:53.594Z,61.72
2019-03-22T01:30:22.632Z,61.48
2019-03-22T01:32:52.937Z,61.36
2019-03-22T01:35:20.548Z,61.50
2019-03-22T01:37:48.161Z,61.79
2019-03-22T01:40:19.365Z,61.97
2019-03-22T01:42:49.479Z,62.25
2019-03-22T01:45:18.847Z,62.38
2019-03-22T01:47:46.448Z,62.28
2019-03-22T01:50:14.448Z,62.18
2019-03-22T01:52:42.078Z,61.92
2019-03-22T01:55:09.768Z,61.83
2019-03-22T01:57:37.387Z,62.00
2019-03-22T02:00:06.707Z,61.36
2019-03-22T02:02:34.631Z,60.84
2019-03-22T02:05:02.723Z,60.96
2019-03-22T02:07:30.336Z,60.57
2019-03-22T02:09:58.053Z,60.75
2019-03-22T02:12:25.698Z,60.49
2019-03-22T02:14:55.666Z,60.41
2019-03-22T02:17:24.631Z,60.67
2019-03-22T02:19:52.196Z,60.87
2019-03-22T02:22:21.935Z,60.99
2019-03-22T02:27:22.983Z,61.34
2019-03-22T02:29:50.645Z,61.36
2019-03-22T02:32:18.310Z,61.50
2019-03-22T02:34:47.827Z,61.33
2019-03-22T02:37:15.542Z,61.29
2019-03-22T02:39:46.263Z,61.37
2019-03-22T02:42:14.228Z,60.75
2019-03-22T02:44:41.821Z,59.61
2019-03-22T02:47:09.474Z,59.47
2019-03-22T02:49:38.811Z,59.33
2019-03-22T02:52:08.679Z,58.83
2019-03-22T02:54:36.324Z,58.91
2019-03-22T02:57:07.586Z,58.69
2019-03-22T02:59:35.214Z,59.03
2019-03-22T03:02:02.990Z,59.48
2019-03-22T03:04:30.586Z,59.72
2019-03-22T03:06:58.200Z,59.95
2019-03-22T03:09:25.987Z,60.18
2019-03-22T03:11:53.608Z,60.44
2019-03-22T03:14:21.217Z,60.69
2019-03-22T03:16:48.813Z,60.94
2019-03-22T03:19:16.419Z,61.13
2019-03-22T03:21:44.016Z,61.29
2019-03-22T03:24:11.659Z,61.30
2019-03-22T03:26:39.314Z,61.08
2019-03-22T03:29:06.918Z,61.07
2019-03-22T03:31:34.594Z,61.07
2019-03-22T03:34:02.254Z,61.32
2019-03-22T03:36:29.934Z,61.51
2019-03-22T03:39:00.053Z,61.57
2019-03-22T03:41:27.678Z,61.60
2019-03-22T03:43:55.276Z,61.78
2019-03-22T03:46:26.534Z,61.89
2019-03-22T03:48:54.135Z,62.02
2019-03-22T03:51:21.802Z,62.12
2019-03-22T03:53:49.577Z,62.23
2019-03-22T03:56:17.207Z,62.42
2019-03-22T03:58:52.371Z,62.59
2019-03-22T04:01:14.344Z,62.74
2019-03-22T04:03:41.943Z,62.83
2019-03-22T04:06:09.538Z,62.88
2019-03-22T04:08:37.138Z,62.92
2019-03-22T04:11:04.781Z,62.99
2019-03-22T04:13:32.408Z,63.07
2019-03-22T04:16:00.014Z,63.21
2019-03-22T04:18:27.613Z,63.40
2019-03-22T04:20:55.230Z,63.52
2019-03-22T04:23:22.852Z,63.62
2019-03-22T04:25:53.233Z,63.68
2019-03-22T04:28:20.868Z,63.76
2019-03-22T04:30:48.503Z,63.87
2019-03-22T04:33:16.157Z,63.97
2019-03-22T04:35:43.771Z,64.05
2019-03-22T04:38:11.424Z,64.15
2019-03-22T04:40:39.024Z,64.22
2019-03-22T04:43:06.735Z,64.29
2019-03-22T04:45:39.791Z,64.38
2019-03-22T04:48:23.031Z,64.41
2019-03-22T04:50:53.248Z,64.47
2019-03-22T04:53:26.339Z,64.55
2019-03-22T04:55:57.690Z,64.58
2019-03-22T04:58:27.025Z,64.58
2019-03-22T05:00:57.884Z,64.60
2019-03-22T05:03:26.616Z,64.59
2019-03-22T05:05:56.655Z,64.64
2019-03-22T05:08:26.351Z,64.74
2019-03-22T05:10:55.336Z,64.87
2019-03-22T05:13:24.354Z,64.91
2019-03-22T05:15:52.248Z,64.88
2019-03-22T05:18:23.394Z,64.88
2019-03-22T05:20:52.202Z,64.93
2019-03-22T05:23:22.623Z,64.97
2019-03-22T05:25:53.730Z,65.06
2019-03-22T05:28:23.082Z,65.10
2019-03-22T05:31:30.167Z,65.16
2019-03-22T05:33:57.797Z,65.22
2019-03-22T05:36:25.394Z,65.17
2019-03-22T05:38:52.984Z,65.08
2019-03-22T05:41:20.688Z,64.97
2019-03-22T05:43:48.384Z,64.87
2019-03-22T05:46:15.993Z,64.73
2019-03-22T05:48:46.598Z,64.60
2019-03-22T05:51:19.975Z,64.49
2019-03-22T05:53:47.664Z,64.39
2019-03-22T05:56:17.393Z,64.31
2019-03-22T05:58:45.004Z,64.33
2019-03-22T06:01:12.604Z,64.32
2019-03-22T06:03:40.234Z,64.02
2019-03-22T06:06:11.449Z,63.82
2019-03-22T06:08:39.081Z,63.73
2019-03-22T06:11:06.717Z,63.56
2019-03-22T06:13:34.367Z,63.58
2019-03-22T06:16:02.043Z,63.37
2019-03-22T06:18:31.788Z,63.10
2019-03-22T06:20:59.828Z,63.13
2019-03-22T06:23:27.522Z,63.07
2019-03-22T06:25:55.129Z,63.14
2019-03-22T06:28:22.778Z,63.19
2019-03-22T06:30:55.753Z,62.77
2019-03-22T06:33:23.382Z,62.28
2019-03-22T06:35:54.783Z,61.32
2019-03-22T06:38:22.463Z,61.71
2019-03-22T06:40:50.062Z,61.74
2019-03-22T06:43:17.669Z,60.52
2019-03-22T06:45:45.363Z,60.35
2019-03-22T06:48:12.963Z,60.29
2019-03-22T06:50:40.610Z,60.35
2019-03-22T06:53:08.238Z,60.17
2019-03-22T06:55:35.829Z,59.74
2019-03-22T06:58:03.461Z,59.08
2019-03-22T07:00:31.069Z,59.13
2019-03-22T07:02:58.734Z,59.25
2019-03-22T07:05:27.538Z,59.47
2019-03-22T07:07:55.130Z,58.90
2019-03-22T07:10:25.500Z,58.52
2019-03-22T07:12:53.095Z,58.17
2019-03-22T07:15:20.750Z,57.32
2019-03-22T07:17:48.372Z,56.91
2019-03-22T07:20:16.103Z,56.56
2019-03-22T07:22:43.705Z,56.32
2019-03-22T07:25:11.445Z,56.65
2019-03-22T07:27:39.074Z,56.33
2019-03-22T07:30:18.093Z,56.03
2019-03-22T07:32:36.756Z,55.86
2019-03-22T07:35:04.375Z,55.08
2019-03-22T07:37:32.025Z,55.26
2019-03-22T07:39:59.625Z,54.72
2019-03-22T07:42:28.095Z,53.83
2019-03-22T07:44:55.717Z,53.28
2019-03-22T07:47:23.354Z,53.92
2019-03-22T07:49:51.172Z,54.12
2019-03-22T07:52:19.926Z,54.42
2019-03-22T07:54:47.537Z,54.31
2019-03-22T07:57:15.610Z,53.78
2019-03-22T07:59:45.519Z,53.78
2019-03-22T08:02:13.228Z,54.81
2019-03-22T08:04:40.841Z,55.35
2019-03-22T08:07:08.472Z,55.20
2019-03-22T08:09:36.098Z,55.12
2019-03-22T08:12:03.803Z,56.50
2019-03-22T08:14:33.960Z,51.00
2019-03-22T08:17:01.563Z,49.67
2019-03-22T08:19:29.165Z,50.86
2019-03-22T08:21:57.011Z,49.00
2019-03-22T08:24:24.601Z,45.17
2019-03-22T08:26:52.183Z,43.66
2019-03-22T08:29:19.819Z,43.37
2019-03-22T08:31:47.421Z,41.31
2019-03-22T08:34:15.090Z,40.97
2019-03-22T08:36:42.727Z,38.43
2019-03-22T08:39:10.426Z,39.60
2019-03-22T08:41:38.117Z,38.26
2019-03-22T08:44:05.803Z,37.49
2019-03-22T08:46:33.367Z,38.10
2019-03-22T08:49:01.072Z,39.10
2019-03-22T08:51:30.043Z,39.43
2019-03-22T08:53:57.777Z,38.21
2019-03-22T08:56:25.431Z,38.11
2019-03-22T08:58:53.030Z,38.38
2019-03-22T09:01:20.620Z,38.34
2019-03-22T09:03:48.335Z,37.06
2019-03-22T09:06:16.002Z,37.08
2019-03-22T09:08:44.049Z,37.31
2019-03-22T09:11:11.641Z,37.50
2019-03-22T09:13:39.265Z,37.55
2019-03-22T09:16:06.859Z,38.81
2019-03-22T09:18:34.504Z,37.70
2019-03-22T09:21:02.192Z,37.86
2019-03-22T09:23:29.746Z,37.80
2019-03-22T09:25:57.430Z,37.79
2019-03-22T09:28:26.801Z,39.23
2019-03-22T09:30:54.411Z,38.94
2019-03-22T09:33:22.053Z,39.14
2019-03-22T09:35:49.723Z,39.25
2019-03-22T09:38:17.341Z,39.10
2019-03-22T09:40:44.988Z,39.39
2019-03-22T09:43:12.606Z,38.43
2019-03-22T09:45:40.250Z,38.42
2019-03-22T09:48:07.941Z,38.36
2019-03-22T09:50:35.531Z,38.50
2019-03-22T09:53:03.152Z,37.57
2019-03-22T09:55:30.713Z,37.67
2019-03-22T09:57:58.474Z,38.38
2019-03-22T10:00:30.914Z,38.46
2019-03-22T10:02:58.692Z,38.50
2019-03-22T10:05:26.364Z,38.31
2019-03-22T10:07:56.723Z,38.65
2019-03-22T10:10:24.412Z,39.33
2019-03-22T10:12:52.064Z,38.09
2019-03-22T10:15:19.693Z,37.33
2019-03-22T10:17:49.533Z,37.72
2019-03-22T10:20:17.186Z,37.03
2019-03-22T10:22:44.821Z,36.46
2019-03-22T10:25:12.452Z,36.56
2019-03-22T10:27:40.104Z,36.98
2019-03-22T10:30:10.668Z,37.33
2019-03-22T10:32:38.338Z,36.82
2019-03-22T10:35:06.127Z,37.59
2019-03-22T10:37:33.787Z,37.68
2019-03-22T10:40:01.416Z,37.31
2019-03-22T10:42:30.874Z,37.40
2019-03-22T10:45:05.806Z,36.98
2019-03-22T10:47:33.408Z,36.92
2019-03-22T10:50:01.048Z,37.34
2019-03-22T10:52:28.745Z,37.73
2019-03-22T10:54:56.338Z,37.96
2019-03-22T10:57:24.007Z,38.69
2019-03-22T10:59:51.738Z,38.37
2019-03-22T11:02:19.350Z,36.60
2019-03-22T11:04:46.984Z,35.91
2019-03-22T11:07:14.588Z,36.11
2019-03-22T11:09:42.240Z,36.01
2019-03-22T11:12:12.440Z,35.35
2019-03-22T11:14:39.365Z,34.59
2019-03-22T11:17:06.969Z,33.81
2019-03-22T11:19:34.631Z,33.66
2019-03-22T11:22:02.243Z,33.43
2019-03-22T11:24:29.861Z,33.48
2019-03-22T11:26:57.449Z,32.65
2019-03-22T11:29:25.058Z,32.46
2019-03-22T11:31:52.684Z,32.84
2019-03-22T11:34:20.294Z,33.49
2019-03-22T11:36:47.945Z,33.81
2019-03-22T11:39:16.184Z,33.75
2019-03-22T11:41:46.973Z,33.66
2019-03-22T11:44:15.879Z,33.02
2019-03-22T11:46:43.519Z,32.21
2019-03-22T11:49:11.125Z,32.98
2019-03-22T11:51:40.258Z,33.59
2019-03-22T11:54:08.126Z,33.77
2019-03-22T11:56:38.764Z,32.44
2019-03-22T11:59:06.369Z,32.77
2019-03-22T12:01:36.025Z,33.58
2019-03-22T12:04:03.708Z,33.79
2019-03-22T12:06:31.306Z,33.25
2019-03-22T12:08:58.955Z,32.85
2019-03-22T12:11:26.569Z,33.48
2019-03-22T12:13:54.177Z,34.25
2019-03-22T12:16:21.785Z,33.82
2019-03-22T12:18:50.423Z,34.20
2019-03-22T12:21:20.307Z,34.26
2019-03-22T12:23:47.901Z,34.43
2019-03-22T12:26:15.544Z,34.44
2019-03-22T12:28:43.175Z,34.60
2019-03-22T12:31:10.779Z,35.18
2019-03-22T12:33:38.435Z,34.44
2019-03-22T12:36:06.096Z,33.83
2019-03-22T12:38:33.712Z,34.29
2019-03-22T12:41:01.350Z,34.73
2019-03-22T12:43:28.973Z,34.00
2019-03-22T12:45:56.619Z,33.94
2019-03-22T12:48:24.222Z,33.94
2019-03-22T12:50:51.937Z,34.09
2019-03-22T12:53:19.249Z,33.81
2019-03-22T12:55:48.669Z,33.57
2019-03-22T12:58:16.385Z,33.71
2019-03-22T13:00:44.006Z,33.47
2019-03-22T13:03:11.621Z,32.71
2019-03-22T13:05:39.246Z,31.79
2019-03-22T13:08:06.899Z,32.20
2019-03-22T13:10:36.816Z,32.38
2019-03-22T13:13:04.430Z,32.32
2019-03-22T13:15:32.038Z,32.45
2019-03-22T13:17:59.641Z,31.59
2019-03-22T13:20:27.250Z,31.27
2019-03-22T13:22:54.842Z,31.78
2019-03-22T13:25:22.457Z,32.20
2019-03-22T13:27:50.073Z,32.08
2019-03-22T13:30:34.246Z,32.62
2019-03-22T13:33:01.957Z,32.78
2019-03-22T13:35:29.577Z,32.41
2019-03-22T13:37:57.184Z,32.10
2019-03-22T13:40:24.797Z,31.88
2019-03-22T13:42:52.441Z,32.22
2019-03-22T13:45:20.061Z,32.15
2019-03-22T13:47:47.669Z,32.42
2019-03-22T13:50:15.309Z,32.47
2019-03-22T13:52:43.025Z,32.50
2019-03-22T13:55:10.613Z,32.45
2019-03-22T13:57:38.326Z,32.37
2019-03-22T14:00:07.408Z,32.97
2019-03-22T14:02:35.073Z,33.07
2019-03-22T14:05:03.001Z,33.12
2019-03-22T14:07:30.618Z,33.30
2019-03-22T14:09:58.232Z,33.01
2019-03-22T14:12:25.893Z,32.26
2019-03-22T14:14:53.502Z,32.22
2019-03-22T14:17:21.098Z,31.30
2019-03-22T14:19:48.702Z,30.79
2019-03-22T14:22:16.310Z,30.49
2019-03-22T14:24:43.910Z,30.88
2019-03-22T14:27:11.576Z,29.95
2019-03-22T14:29:39.165Z,30.27
2019-03-22T14:32:07.918Z,30.54
2019-03-22T14:34:35.679Z,31.03
2019-03-22T14:37:03.280Z,31.33
2019-03-22T14:39:30.882Z,31.33
2019-03-22T14:42:01.775Z,31.27
2019-03-22T14:44:31.876Z,31.17
2019-03-22T14:46:59.482Z,31.62
2019-03-22T14:49:27.127Z,30.37
2019-03-22T14:51:57.435Z,31.35
2019-03-22T14:54:25.056Z,31.99
2019-03-22T14:56:52.670Z,32.51
2019-03-22T14:59:20.268Z,32.70
2019-03-22T15:01:47.870Z,32.90
2019-03-22T15:04:15.521Z,30.93
2019-03-22T15:06:43.146Z,32.01
2019-03-22T15:09:10.765Z,32.10
2019-03-22T15:11:38.444Z,32.86
2019-03-22T15:14:12.994Z,32.88
2019-03-22T15:16:52.841Z,31.82
2019-03-22T15:19:37.010Z,32.78
2019-03-22T15:22:29.979Z,32.42
2019-03-22T15:25:15.787Z,32.96
2019-03-22T15:28:15.218Z,33.15
2019-03-22T15:31:00.943Z,32.81
2019-03-22T15:33:48.467Z,33.66
2019-03-22T15:36:34.416Z,33.89
2019-03-22T15:39:30.952Z,34.17
2019-03-22T15:41:58.766Z,33.95
2019-03-22T15:44:26.425Z,34.06
2019-03-22T15:46:54.080Z,33.89
2019-03-22T15:49:21.651Z,34.04
2019-03-22T15:51:49.489Z,34.07
2019-03-22T15:54:17.102Z,33.99
2019-03-22T15:56:44.722Z,34.48
2019-03-22T15:59:12.379Z,34.62
2019-03-22T16:01:42.463Z,34.52
2019-03-22T16:04:10.127Z,34.66
2019-03-22T16:06:37.700Z,34.83
2019-03-22T16:09:06.959Z,35.15
2019-03-22T16:11:37.358Z,35.29
2019-03-22T16:14:05.214Z,35.46
2019-03-22T16:16:32.834Z,35.65
2019-03-22T16:19:00.446Z,36.04
2019-03-22T16:21:28.046Z,36.39
2019-03-22T16:23:55.655Z,36.79
2019-03-22T16:26:23.274Z,37.16
2019-03-22T16:28:50.922Z,37.53
2019-03-22T16:31:18.853Z,37.77
2019-03-22T16:33:53.998Z,37.95
2019-03-22T16:36:16.148Z,38.18
2019-03-22T16:38:45.171Z,38.43
2019-03-22T16:41:12.775Z,38.65
2019-03-22T16:43:40.586Z,38.78
2019-03-22T16:46:08.182Z,38.86
2019-03-22T16:48:35.805Z,39.08
2019-03-22T16:51:03.544Z,39.34
2019-03-22T16:53:31.166Z,39.59
2019-03-22T16:55:58.800Z,39.79
2019-03-22T16:58:26.415Z,40.04
2019-03-22T17:00:54.032Z,40.28
2019-03-22T17:03:21.629Z,40.30
2019-03-22T17:05:49.268Z,40.38
2019-03-22T17:08:16.875Z,40.48
2019-03-22T17:10:44.934Z,40.60
2019-03-22T17:13:12.871Z,40.67
2019-03-22T17:15:43.408Z,40.70
2019-03-22T17:18:11.243Z,40.80
2019-03-22T17:20:41.272Z,40.96
2019-03-22T17:23:08.913Z,41.14
2019-03-22T17:25:39.080Z,41.16
2019-03-22T17:28:06.699Z,41.37
2019-03-22T17:30:36.843Z,41.54
2019-03-22T17:33:04.585Z,41.55
2019-03-22T17:35:32.204Z,41.62
2019-03-22T17:37:59.850Z,41.58
2019-03-22T17:40:27.438Z,41.60
2019-03-22T17:42:55.043Z,41.77
2019-03-22T17:45:22.643Z,41.93
2019-03-22T17:47:50.251Z,42.17
2019-03-22T17:50:18.153Z,42.82
2019-03-22T17:52:45.748Z,43.05
2019-03-22T17:55:14.065Z,43.11
2019-03-22T17:57:41.668Z,43.56
2019-03-22T18:00:09.351Z,43.72
2019-03-22T18:02:36.957Z,44.69
2019-03-22T18:05:05.472Z,45.72
2019-03-22T18:07:33.067Z,45.96
2019-03-22T18:10:00.696Z,47.28
2019-03-22T18:12:28.300Z,46.87
2019-03-22T18:14:55.929Z,47.82
2019-03-22T18:17:23.527Z,49.09
2019-03-22T18:19:51.133Z,48.33
2019-03-22T18:22:18.740Z,48.89
2019-03-22T18:24:46.356Z,48.88
2019-03-22T18:27:13.987Z,48.53
2019-03-22T18:29:41.578Z,49.93
2019-03-22T18:32:09.174Z,49.61
2019-03-22T18:34:37.605Z,49.35
2019-03-22T18:37:05.354Z,50.23
2019-03-22T18:39:32.988Z,50.56
2019-03-22T18:42:01.518Z,50.83
2019-03-22T18:44:29.144Z,50.28
2019-03-22T18:46:56.779Z,50.97
2019-03-22T18:49:24.424Z,51.32
2019-03-22T18:51:52.019Z,52.47
2019-03-22T18:54:19.637Z,53.76
2019-03-22T18:56:47.255Z,53.18
2019-03-22T18:59:14.906Z,55.50
2019-03-22T19:01:42.519Z,55.23
2019-03-22T19:04:10.124Z,55.74
2019-03-22T19:06:37.718Z,55.94
2019-03-22T19:09:06.732Z,56.59
2019-03-22T19:11:34.334Z,58.05
2019-03-22T19:14:01.940Z,57.06
2019-03-22T19:16:29.562Z,56.87
2019-03-22T19:18:57.151Z,58.16
2019-03-22T19:21:24.748Z,58.02
2019-03-22T19:23:52.349Z,60.16
2019-03-22T19:26:19.943Z,59.22
2019-03-22T19:28:47.571Z,58.25
2019-03-22T19:31:15.217Z,60.08
2019-03-22T19:33:42.806Z,58.36
2019-03-22T19:36:10.406Z,58.85
2019-03-22T19:38:38.024Z,58.23
2019-03-22T19:41:05.626Z,57.56
2019-03-22T19:43:33.211Z,58.00
2019-03-22T19:46:00.815Z,59.19
2019-03-22T19:48:28.437Z,59.12
2019-03-22T19:50:56.039Z,58.99
2019-03-22T19:53:23.645Z,58.71
2019-03-22T19:55:51.247Z,58.33
2019-03-22T19:58:18.854Z,58.18
2019-03-22T20:00:46.479Z,58.64
2019-03-22T20:03:14.098Z,58.37
2019-03-22T20:05:41.699Z,58.43
2019-03-22T20:08:12.788Z,58.13
2019-03-22T20:10:38.840Z,58.30
2019-03-22T20:13:06.467Z,58.01
2019-03-22T20:15:34.070Z,58.60
2019-03-22T20:18:01.667Z,58.74
2019-03-22T20:20:29.258Z,58.91
2019-03-22T20:22:56.853Z,58.77
2019-03-22T20:25:24.467Z,58.90
2019-03-22T20:27:52.079Z,58.73
2019-03-22T20:30:20.211Z,58.76
2019-03-22T20:32:47.961Z,58.68
2019-03-22T20:35:17.078Z,59.06
2019-03-22T20:37:44.911Z,58.84
2019-03-22T20:40:12.950Z,59.25
2019-03-22T20:42:40.542Z,59.13
2019-03-22T20:45:09.055Z,58.72
2019-03-22T20:47:36.666Z,59.26
2019-03-22T20:50:04.467Z,59.10
2019-03-22T20:52:32.024Z,59.26
2019-03-22T20:54:59.630Z,59.33
2019-03-22T20:57:27.241Z,59.71
2019-03-22T20:59:54.849Z,59.83
2019-03-22T21:02:22.471Z,59.42
2019-03-22T21:04:50.097Z,59.52
2019-03-22T21:07:17.892Z,59.61
2019-03-22T21:09:45.464Z,59.56
2019-03-22T21:12:13.090Z,59.58
2019-03-22T21:14:40.706Z,59.99
2019-03-22T21:17:08.331Z,59.80
2019-03-22T21:19:35.939Z,59.61
2019-03-22T21:22:06.333Z,59.86
2019-03-22T21:24:33.975Z,60.01
2019-03-22T21:27:01.681Z,60.07
2019-03-22T21:29:29.312Z,60.15
2019-03-22T21:31:56.919Z,60.27
2019-03-22T21:34:24.591Z,60.54
2019-03-22T21:36:52.193Z,60.19
2019-03-22T21:39:19.788Z,60.37
2019-03-22T21:41:47.448Z,61.14
2019-03-22T21:44:15.323Z,60.61
2019-03-22T21:46:42.919Z,61.08
2019-03-22T21:49:10.562Z,60.96
2019-03-22T21:51:38.410Z,60.67
2019-03-22T21:54:06.029Z,61.09
2019-03-22T21:56:33.745Z,61.24
2019-03-22T21:59:01.384Z,60.99
2019-03-22T22:01:28.988Z,60.92
2019-03-22T22:03:56.579Z,61.07
2019-03-22T22:06:24.173Z,61.20
2019-03-22T22:08:51.785Z,61.47
2019-03-22T22:11:19.391Z,61.26
2019-03-22T22:13:47.006Z,61.40
2019-03-22T22:16:14.607Z,61.85
2019-03-22T22:18:42.211Z,63.53
2019-03-22T22:21:09.822Z,63.54
2019-03-22T22:23:37.469Z,63.19
2019-03-22T22:26:05.026Z,63.04
2019-03-22T22:28:32.628Z,63.07
2019-03-22T22:31:00.415Z,63.05
2019-03-22T22:33:28.185Z,62.96
2019-03-22T22:35:58.790Z,63.38
2019-03-22T22:38:25.568Z,63.58
2019-03-22T22:40:53.160Z,63.97
2019-03-22T22:43:20.792Z,63.53
2019-03-22T22:45:48.383Z,63.40
2019-03-22T22:48:16.024Z,63.37
2019-03-22T22:50:43.607Z,63.40
2019-03-22T22:53:11.196Z,62.95
2019-03-22T22:55:38.853Z,63.00
2019-03-22T22:58:06.447Z,62.75
2019-03-22T23:00:34.572Z,62.85
2019-03-22T23:03:02.177Z,63.34
2019-03-22T23:05:29.774Z,63.42
2019-03-22T23:07:57.373Z,63.31
2019-03-22T23:10:25.161Z,63.25
2019-03-22T23:12:52.846Z,63.57
2019-03-22T23:15:20.486Z,63.19
2019-03-22T23:17:48.089Z,63.31
2019-03-22T23:20:15.755Z,63.69
2019-03-22T23:22:43.360Z,63.64
2019-03-22T23:25:11.058Z,63.79
2019-03-22T23:27:38.660Z,64.03
2019-03-22T23:30:07.353Z,63.88
2019-03-22T23:32:35.100Z,64.72
2019-03-22T23:35:03.108Z,65.21
2019-03-22T23:37:30.696Z,64.44
2019-03-22T23:39:58.308Z,64.86
2019-03-22T23:42:26.182Z,64.88
2019-03-22T23:44:54.149Z,65.17
2019-03-22T23:47:21.726Z,65.00
2019-03-22T23:49:49.315Z,65.29
2019-03-22T23:52:17.154Z,65.62
2019-03-22T23:54:44.867Z,65.71
2019-03-22T23:57:12.501Z,66.02
2019-03-22T23:59:40.363Z,66.92
